sensor_id;sensor_type;location;lat;lon;timestamp;P1;durP1;ratioP1;P2;durP2;ratioP2
2293;SDS011;1155;42.644;23.264;2023-04-03T00:01:44;3.50;;;1.40;;
2293;SDS011;1155;42.644;23.264;2023-04-03T00:04:11;2.00;;;1.40;;
2293;SDS011;1155;42.644;23.264;2023-04-03T00:06:37;1.80;;;1.43;;
2293;SDS011;1155;42.644;23.264;2023-04-03T00:09:04;1.20;;;1.03;;
2293;SDS011;1155;42.644;23.264;2023-04-03T00:11:31;3.00;;;1.20;;
2293;SDS011;1155;42.644;23.264;2023-04-03T00:13:58;5.50;;;1.60;;
2293;SDS011;1155;42.644;23.264;2023-04-03T00:16:26;5.07;;;1.57;;
2293;SDS011;1155;42.644;23.264;2023-04-03T00:18:53;1.80;;;1.70;;
2293;SDS011;1155;42.644;23.264;2023-04-03T00:21:20;1.30;;;1.13;;
2293;SDS011;1155;42.644;23.264;2023-04-03T00:23:47;2.10;;;1.17;;
2293;SDS011;1155;42.644;23.264;2023-04-03T00:26:14;1.20;;;1.10;;
2293;SDS011;1155;42.644;23.264;2023-04-03T00:28:41;8.53;;;1.27;;
2293;SDS011;1155;42.644;23.264;2023-04-03T00:31:07;0.80;;;0.80;;
2293;SDS011;1155;42.644;23.264;2023-04-03T00:33:36;1.20;;;1.10;;
2293;SDS011;1155;42.644;23.264;2023-04-03T00:36:06;1.30;;;1.20;;
2293;SDS011;1155;42.644;23.264;2023-04-03T00:38:34;2.73;;;1.20;;
2293;SDS011;1155;42.644;23.264;2023-04-03T00:41:01;2.13;;;1.20;;
2293;SDS011;1155;42.644;23.264;2023-04-03T00:43:28;1.23;;;1.13;;
2293;SDS011;1155;42.644;23.264;2023-04-03T00:45:58;1.80;;;0.87;;
2293;SDS011;1155;42.644;23.264;2023-04-03T00:48:26;1.53;;;1.13;;
2293;SDS011;1155;42.644;23.264;2023-04-03T00:50:57;1.87;;;0.97;;
2293;SDS011;1155;42.644;23.264;2023-04-03T00:53:25;1.17;;;1.07;;
2293;SDS011;1155;42.644;23.264;2023-04-03T00:55:56;1.20;;;1.10;;
2293;SDS011;1155;42.644;23.264;2023-04-03T00:58:25;1.07;;;0.90;;
2293;SDS011;1155;42.644;23.264;2023-04-03T01:00:59;1.40;;;1.17;;
2293;SDS011;1155;42.644;23.264;2023-04-03T01:03:32;1.00;;;0.90;;
2293;SDS011;1155;42.644;23.264;2023-04-03T01:06:00;1.10;;;1.00;;
2293;SDS011;1155;42.644;23.264;2023-04-03T01:08:27;1.47;;;1.20;;
2293;SDS011;1155;42.644;23.264;2023-04-03T01:10:54;2.57;;;1.10;;
2293;SDS011;1155;42.644;23.264;2023-04-03T01:13:23;1.13;;;0.90;;
2293;SDS011;1155;42.644;23.264;2023-04-03T01:15:51;1.43;;;1.17;;
2293;SDS011;1155;42.644;23.264;2023-04-03T01:18:19;1.83;;;1.73;;
2293;SDS011;1155;42.644;23.264;2023-04-03T01:23:59;1.20;;;1.10;;
2293;SDS011;1155;42.644;23.264;2023-04-03T01:26:38;1.30;;;1.20;;
2293;SDS011;1155;42.644;23.264;2023-04-03T01:29:05;1.10;;;1.00;;
2293;SDS011;1155;42.644;23.264;2023-04-03T01:31:41;1.37;;;1.13;;
2293;SDS011;1155;42.644;23.264;2023-04-03T01:34:14;2.00;;;1.13;;
2293;SDS011;1155;42.644;23.264;2023-04-03T01:36:41;2.07;;;1.47;;
2293;SDS011;1155;42.644;23.264;2023-04-03T01:39:08;1.03;;;0.93;;
2293;SDS011;1155;42.644;23.264;2023-04-03T01:41:35;1.37;;;1.10;;
2293;SDS011;1155;42.644;23.264;2023-04-03T01:44:04;2.20;;;1.47;;
2293;SDS011;1155;42.644;23.264;2023-04-03T01:46:31;1.50;;;1.30;;
2293;SDS011;1155;42.644;23.264;2023-04-03T01:49:00;1.30;;;1.20;;
2293;SDS011;1155;42.644;23.264;2023-04-03T01:51:27;1.20;;;1.10;;
2293;SDS011;1155;42.644;23.264;2023-04-03T01:53:54;1.50;;;1.20;;
2293;SDS011;1155;42.644;23.264;2023-04-03T01:56:21;1.60;;;1.40;;
2293;SDS011;1155;42.644;23.264;2023-04-03T01:58:48;1.53;;;0.97;;
2293;SDS011;1155;42.644;23.264;2023-04-03T02:01:15;2.03;;;1.30;;
2293;SDS011;1155;42.644;23.264;2023-04-03T02:03:42;1.67;;;1.10;;
2293;SDS011;1155;42.644;23.264;2023-04-03T02:06:10;4.20;;;1.43;;
2293;SDS011;1155;42.644;23.264;2023-04-03T02:08:37;1.43;;;1.30;;
2293;SDS011;1155;42.644;23.264;2023-04-03T02:11:04;1.80;;;1.57;;
2293;SDS011;1155;42.644;23.264;2023-04-03T02:13:31;1.77;;;1.30;;
2293;SDS011;1155;42.644;23.264;2023-04-03T02:15:58;1.53;;;1.37;;
2293;SDS011;1155;42.644;23.264;2023-04-03T02:18:25;1.53;;;1.43;;
2293;SDS011;1155;42.644;23.264;2023-04-03T02:20:52;1.33;;;1.23;;
2293;SDS011;1155;42.644;23.264;2023-04-03T02:23:21;1.53;;;1.43;;
2293;SDS011;1155;42.644;23.264;2023-04-03T02:25:47;1.40;;;1.20;;
2293;SDS011;1155;42.644;23.264;2023-04-03T02:28:15;1.30;;;1.20;;
2293;SDS011;1155;42.644;23.264;2023-04-03T02:30:43;1.40;;;1.30;;
2293;SDS011;1155;42.644;23.264;2023-04-03T02:33:10;1.40;;;1.30;;
2293;SDS011;1155;42.644;23.264;2023-04-03T02:35:37;2.00;;;1.47;;
2293;SDS011;1155;42.644;23.264;2023-04-03T02:38:05;1.70;;;1.60;;
2293;SDS011;1155;42.644;23.264;2023-04-03T02:40:33;1.47;;;1.37;;
2293;SDS011;1155;42.644;23.264;2023-04-03T02:43:00;2.93;;;2.10;;
2293;SDS011;1155;42.644;23.264;2023-04-03T02:45:27;2.33;;;1.53;;
2293;SDS011;1155;42.644;23.264;2023-04-03T02:47:53;2.40;;;1.50;;
2293;SDS011;1155;42.644;23.264;2023-04-03T02:50:20;4.80;;;1.37;;
2293;SDS011;1155;42.644;23.264;2023-04-03T02:52:47;1.13;;;1.03;;
2293;SDS011;1155;42.644;23.264;2023-04-03T02:55:14;1.63;;;1.07;;
2293;SDS011;1155;42.644;23.264;2023-04-03T02:57:43;1.40;;;1.30;;
2293;SDS011;1155;42.644;23.264;2023-04-03T03:00:10;1.37;;;1.27;;
2293;SDS011;1155;42.644;23.264;2023-04-03T03:02:37;1.50;;;1.00;;
2293;SDS011;1155;42.644;23.264;2023-04-03T03:05:04;1.33;;;1.23;;
2293;SDS011;1155;42.644;23.264;2023-04-03T03:07:32;2.23;;;1.10;;
2293;SDS011;1155;42.644;23.264;2023-04-03T03:09:59;2.50;;;1.90;;
2293;SDS011;1155;42.644;23.264;2023-04-03T03:12:26;1.73;;;1.13;;
2293;SDS011;1155;42.644;23.264;2023-04-03T03:14:54;1.53;;;1.43;;
2293;SDS011;1155;42.644;23.264;2023-04-03T03:17:21;1.20;;;1.10;;
2293;SDS011;1155;42.644;23.264;2023-04-03T03:19:48;1.40;;;1.13;;
2293;SDS011;1155;42.644;23.264;2023-04-03T03:22:15;1.83;;;1.33;;
2293;SDS011;1155;42.644;23.264;2023-04-03T03:24:42;1.43;;;1.33;;
2293;SDS011;1155;42.644;23.264;2023-04-03T03:27:09;1.93;;;1.27;;
2293;SDS011;1155;42.644;23.264;2023-04-03T03:29:37;3.43;;;1.40;;
2293;SDS011;1155;42.644;23.264;2023-04-03T03:32:05;2.47;;;1.30;;
2293;SDS011;1155;42.644;23.264;2023-04-03T03:34:32;2.43;;;1.67;;
2293;SDS011;1155;42.644;23.264;2023-04-03T03:36:59;1.30;;;1.10;;
2293;SDS011;1155;42.644;23.264;2023-04-03T03:39:26;1.93;;;1.73;;
2293;SDS011;1155;42.644;23.264;2023-04-03T03:41:53;1.10;;;1.00;;
2293;SDS011;1155;42.644;23.264;2023-04-03T03:44:20;1.33;;;1.10;;
2293;SDS011;1155;42.644;23.264;2023-04-03T03:46:47;1.97;;;1.80;;
2293;SDS011;1155;42.644;23.264;2023-04-03T03:49:15;1.33;;;1.23;;
2293;SDS011;1155;42.644;23.264;2023-04-03T03:51:42;3.43;;;1.97;;
2293;SDS011;1155;42.644;23.264;2023-04-03T03:54:09;1.27;;;1.17;;
2293;SDS011;1155;42.644;23.264;2023-04-03T03:56:36;2.33;;;1.60;;
2293;SDS011;1155;42.644;23.264;2023-04-03T03:59:02;1.20;;;1.10;;
2293;SDS011;1155;42.644;23.264;2023-04-03T04:01:29;1.40;;;1.20;;
2293;SDS011;1155;42.644;23.264;2023-04-03T04:03:56;1.60;;;1.50;;
2293;SDS011;1155;42.644;23.264;2023-04-03T04:06:27;2.33;;;2.13;;
2293;SDS011;1155;42.644;23.264;2023-04-03T04:08:54;2.03;;;1.83;;
2293;SDS011;1155;42.644;23.264;2023-04-03T04:11:23;1.70;;;1.60;;
2293;SDS011;1155;42.644;23.264;2023-04-03T04:13:50;1.30;;;1.10;;
2293;SDS011;1155;42.644;23.264;2023-04-03T04:16:17;3.00;;;1.53;;
2293;SDS011;1155;42.644;23.264;2023-04-03T04:18:46;1.37;;;1.27;;
2293;SDS011;1155;42.644;23.264;2023-04-03T04:21:13;2.50;;;1.70;;
2293;SDS011;1155;42.644;23.264;2023-04-03T04:23:41;1.90;;;1.80;;
2293;SDS011;1155;42.644;23.264;2023-04-03T04:26:08;2.63;;;2.43;;
2293;SDS011;1155;42.644;23.264;2023-04-03T04:28:35;2.10;;;1.90;;
2293;SDS011;1155;42.644;23.264;2023-04-03T04:31:02;1.90;;;1.53;;
2293;SDS011;1155;42.644;23.264;2023-04-03T04:33:29;2.20;;;1.97;;
2293;SDS011;1155;42.644;23.264;2023-04-03T04:35:59;2.30;;;1.90;;
2293;SDS011;1155;42.644;23.264;2023-04-03T04:38:25;1.67;;;1.40;;
2293;SDS011;1155;42.644;23.264;2023-04-03T04:40:54;4.07;;;3.77;;
2293;SDS011;1155;42.644;23.264;2023-04-03T04:43:20;3.00;;;2.10;;
2293;SDS011;1155;42.644;23.264;2023-04-03T04:45:47;2.17;;;1.60;;
2293;SDS011;1155;42.644;23.264;2023-04-03T04:48:15;1.97;;;1.80;;
2293;SDS011;1155;42.644;23.264;2023-04-03T04:50:41;1.60;;;1.50;;
2293;SDS011;1155;42.644;23.264;2023-04-03T04:53:08;2.60;;;2.40;;
2293;SDS011;1155;42.644;23.264;2023-04-03T04:55:35;3.20;;;2.30;;
2293;SDS011;1155;42.644;23.264;2023-04-03T04:58:03;2.90;;;2.70;;
2293;SDS011;1155;42.644;23.264;2023-04-03T05:00:30;2.23;;;2.03;;
2293;SDS011;1155;42.644;23.264;2023-04-03T05:02:57;2.63;;;2.43;;
2293;SDS011;1155;42.644;23.264;2023-04-03T05:05:24;1.83;;;1.73;;
2293;SDS011;1155;42.644;23.264;2023-04-03T05:07:51;2.20;;;2.00;;
2293;SDS011;1155;42.644;23.264;2023-04-03T05:10:18;2.27;;;2.07;;
2293;SDS011;1155;42.644;23.264;2023-04-03T05:12:45;7.93;;;3.60;;
2293;SDS011;1155;42.644;23.264;2023-04-03T05:15:14;2.60;;;2.40;;
2293;SDS011;1155;42.644;23.264;2023-04-03T05:17:40;2.43;;;2.23;;
2293;SDS011;1155;42.644;23.264;2023-04-03T05:20:07;2.60;;;2.40;;
2293;SDS011;1155;42.644;23.264;2023-04-03T05:22:35;1.53;;;1.43;;
2293;SDS011;1155;42.644;23.264;2023-04-03T05:25:02;1.60;;;1.50;;
2293;SDS011;1155;42.644;23.264;2023-04-03T05:27:29;1.60;;;1.50;;
2293;SDS011;1155;42.644;23.264;2023-04-03T05:29:56;1.90;;;1.80;;
2293;SDS011;1155;42.644;23.264;2023-04-03T05:32:26;3.77;;;2.17;;
2293;SDS011;1155;42.644;23.264;2023-04-03T05:34:53;2.00;;;1.80;;
2293;SDS011;1155;42.644;23.264;2023-04-03T05:37:20;1.67;;;1.57;;
2293;SDS011;1155;42.644;23.264;2023-04-03T05:39:47;2.17;;;1.90;;
2293;SDS011;1155;42.644;23.264;2023-04-03T05:42:13;2.63;;;2.40;;
2293;SDS011;1155;42.644;23.264;2023-04-03T05:44:41;2.73;;;2.00;;
2293;SDS011;1155;42.644;23.264;2023-04-03T05:47:08;2.73;;;2.60;;
2293;SDS011;1155;42.644;23.264;2023-04-03T05:49:36;5.23;;;2.53;;
2293;SDS011;1155;42.644;23.264;2023-04-03T05:52:05;2.40;;;2.20;;
2293;SDS011;1155;42.644;23.264;2023-04-03T05:54:32;5.90;;;3.00;;
2293;SDS011;1155;42.644;23.264;2023-04-03T05:56:59;5.83;;;4.50;;
2293;SDS011;1155;42.644;23.264;2023-04-03T05:59:26;6.80;;;3.40;;
2293;SDS011;1155;42.644;23.264;2023-04-03T06:01:53;5.20;;;4.70;;
2293;SDS011;1155;42.644;23.264;2023-04-03T06:04:20;5.30;;;4.23;;
2293;SDS011;1155;42.644;23.264;2023-04-03T06:06:49;5.87;;;3.33;;
2293;SDS011;1155;42.644;23.264;2023-04-03T06:09:18;9.27;;;4.30;;
2293;SDS011;1155;42.644;23.264;2023-04-03T06:11:48;7.63;;;5.07;;
2293;SDS011;1155;42.644;23.264;2023-04-03T06:14:19;7.77;;;5.77;;
2293;SDS011;1155;42.644;23.264;2023-04-03T06:16:46;9.67;;;6.67;;
2293;SDS011;1155;42.644;23.264;2023-04-03T06:19:24;10.27;;;6.47;;
2293;SDS011;1155;42.644;23.264;2023-04-03T06:21:58;9.70;;;7.00;;
2293;SDS011;1155;42.644;23.264;2023-04-03T06:24:25;13.80;;;6.60;;
2293;SDS011;1155;42.644;23.264;2023-04-03T06:26:52;7.07;;;6.17;;
2293;SDS011;1155;42.644;23.264;2023-04-03T06:29:19;8.83;;;6.93;;
2293;SDS011;1155;42.644;23.264;2023-04-03T06:31:46;12.00;;;7.60;;
2293;SDS011;1155;42.644;23.264;2023-04-03T06:34:14;8.70;;;7.00;;
2293;SDS011;1155;42.644;23.264;2023-04-03T06:36:42;12.97;;;7.97;;
2293;SDS011;1155;42.644;23.264;2023-04-03T06:39:12;8.27;;;6.73;;
2293;SDS011;1155;42.644;23.264;2023-04-03T06:41:41;7.73;;;5.63;;
2293;SDS011;1155;42.644;23.264;2023-04-03T06:44:08;8.27;;;5.50;;
2293;SDS011;1155;42.644;23.264;2023-04-03T06:46:36;8.20;;;6.37;;
2293;SDS011;1155;42.644;23.264;2023-04-03T06:49:04;11.60;;;7.00;;
2293;SDS011;1155;42.644;23.264;2023-04-03T06:51:32;9.53;;;6.50;;
2293;SDS011;1155;42.644;23.264;2023-04-03T06:54:00;13.33;;;6.13;;
2293;SDS011;1155;42.644;23.264;2023-04-03T06:56:28;7.93;;;5.73;;
2293;SDS011;1155;42.644;23.264;2023-04-03T06:58:55;11.40;;;7.87;;
2293;SDS011;1155;42.644;23.264;2023-04-03T07:01:26;28.40;;;9.60;;
2293;SDS011;1155;42.644;23.264;2023-04-03T07:03:54;20.20;;;8.97;;
2293;SDS011;1155;42.644;23.264;2023-04-03T07:06:21;15.33;;;9.00;;
2293;SDS011;1155;42.644;23.264;2023-04-03T07:08:51;12.30;;;9.30;;
2293;SDS011;1155;42.644;23.264;2023-04-03T07:11:18;14.90;;;9.30;;
2293;SDS011;1155;42.644;23.264;2023-04-03T07:13:46;9.63;;;8.63;;
2293;SDS011;1155;42.644;23.264;2023-04-03T07:16:13;14.63;;;8.47;;
2293;SDS011;1155;42.644;23.264;2023-04-03T07:18:40;18.70;;;8.80;;
2293;SDS011;1155;42.644;23.264;2023-04-03T07:21:07;13.50;;;9.60;;
2293;SDS011;1155;42.644;23.264;2023-04-03T07:23:34;13.37;;;9.83;;
2293;SDS011;1155;42.644;23.264;2023-04-03T07:26:01;13.63;;;9.33;;
2293;SDS011;1155;42.644;23.264;2023-04-03T07:28:28;8.97;;;7.37;;
2293;SDS011;1155;42.644;23.264;2023-04-03T07:31:00;14.23;;;8.57;;
2293;SDS011;1155;42.644;23.264;2023-04-03T07:33:29;11.33;;;8.80;;
2293;SDS011;1155;42.644;23.264;2023-04-03T07:36:03;10.50;;;9.50;;
2293;SDS011;1155;42.644;23.264;2023-04-03T07:38:37;23.13;;;9.00;;
2293;SDS011;1155;42.644;23.264;2023-04-03T07:41:04;17.00;;;8.80;;
2293;SDS011;1155;42.644;23.264;2023-04-03T07:43:31;13.80;;;8.90;;
2293;SDS011;1155;42.644;23.264;2023-04-03T07:46:00;14.00;;;10.27;;
2293;SDS011;1155;42.644;23.264;2023-04-03T07:48:27;9.63;;;8.63;;
2293;SDS011;1155;42.644;23.264;2023-04-03T07:50:58;12.27;;;7.50;;
2293;SDS011;1155;42.644;23.264;2023-04-03T07:53:25;11.00;;;6.80;;
2293;SDS011;1155;42.644;23.264;2023-04-03T07:55:52;12.43;;;7.43;;
2293;SDS011;1155;42.644;23.264;2023-04-03T07:58:21;8.67;;;6.17;;
2293;SDS011;1155;42.644;23.264;2023-04-03T08:00:48;8.93;;;7.13;;
2293;SDS011;1155;42.644;23.264;2023-04-03T08:03:29;8.70;;;6.00;;
2293;SDS011;1155;42.644;23.264;2023-04-03T08:06:00;8.87;;;6.13;;
2293;SDS011;1155;42.644;23.264;2023-04-03T08:08:29;10.03;;;5.47;;
2293;SDS011;1155;42.644;23.264;2023-04-03T08:10:58;8.03;;;5.17;;
2293;SDS011;1155;42.644;23.264;2023-04-03T08:13:27;7.07;;;5.77;;
2293;SDS011;1155;42.644;23.264;2023-04-03T08:15:54;8.37;;;6.30;;
2293;SDS011;1155;42.644;23.264;2023-04-03T08:18:22;7.50;;;6.07;;
2293;SDS011;1155;42.644;23.264;2023-04-03T08:20:51;10.80;;;6.90;;
2293;SDS011;1155;42.644;23.264;2023-04-03T08:23:18;10.73;;;6.50;;
2293;SDS011;1155;42.644;23.264;2023-04-03T08:25:45;12.40;;;8.90;;
2293;SDS011;1155;42.644;23.264;2023-04-03T08:28:12;13.03;;;8.63;;
2293;SDS011;1155;42.644;23.264;2023-04-03T08:30:39;18.90;;;7.80;;
2293;SDS011;1155;42.644;23.264;2023-04-03T08:33:07;12.70;;;8.30;;
2293;SDS011;1155;42.644;23.264;2023-04-03T08:35:37;9.43;;;7.00;;
2293;SDS011;1155;42.644;23.264;2023-04-03T08:38:07;10.13;;;8.07;;
2293;SDS011;1155;42.644;23.264;2023-04-03T08:40:34;10.50;;;7.37;;
2293;SDS011;1155;42.644;23.264;2023-04-03T08:43:04;14.63;;;9.30;;
2293;SDS011;1155;42.644;23.264;2023-04-03T08:45:51;12.60;;;9.27;;
2293;SDS011;1155;42.644;23.264;2023-04-03T08:48:21;14.07;;;8.30;;
2293;SDS011;1155;42.644;23.264;2023-04-03T08:50:54;11.57;;;9.53;;
2293;SDS011;1155;42.644;23.264;2023-04-03T08:53:26;11.30;;;10.20;;
2293;SDS011;1155;42.644;23.264;2023-04-03T08:55:57;14.07;;;9.10;;
2293;SDS011;1155;42.644;23.264;2023-04-03T08:58:26;10.40;;;7.47;;
2293;SDS011;1155;42.644;23.264;2023-04-03T09:00:55;10.43;;;8.43;;
2293;SDS011;1155;42.644;23.264;2023-04-03T09:03:28;12.60;;;9.77;;
2293;SDS011;1155;42.644;23.264;2023-04-03T09:05:57;12.10;;;9.47;;
2293;SDS011;1155;42.644;23.264;2023-04-03T09:08:31;12.97;;;9.87;;
2293;SDS011;1155;42.644;23.264;2023-04-03T09:11:06;14.13;;;10.10;;
2293;SDS011;1155;42.644;23.264;2023-04-03T09:13:41;12.63;;;8.93;;
2293;SDS011;1155;42.644;23.264;2023-04-03T09:16:18;13.67;;;9.70;;
2293;SDS011;1155;42.644;23.264;2023-04-03T09:18:52;18.90;;;10.67;;
2293;SDS011;1155;42.644;23.264;2023-04-03T09:21:30;21.37;;;7.63;;
2293;SDS011;1155;42.644;23.264;2023-04-03T09:24:02;12.00;;;7.80;;
2293;SDS011;1155;42.644;23.264;2023-04-03T09:26:33;11.03;;;8.10;;
2293;SDS011;1155;42.644;23.264;2023-04-03T09:29:06;5.83;;;5.23;;
2293;SDS011;1155;42.644;23.264;2023-04-03T09:31:36;4.20;;;3.67;;
2293;SDS011;1155;42.644;23.264;2023-04-03T09:34:05;8.33;;;3.93;;
2293;SDS011;1155;42.644;23.264;2023-04-03T09:36:40;2.90;;;2.33;;
2293;SDS011;1155;42.644;23.264;2023-04-03T09:39:11;2.13;;;1.70;;
2293;SDS011;1155;42.644;23.264;2023-04-03T09:41:41;2.13;;;1.90;;
2293;SDS011;1155;42.644;23.264;2023-04-03T09:44:20;1.40;;;1.30;;
2293;SDS011;1155;42.644;23.264;2023-04-03T09:46:48;1.20;;;0.93;;
2293;SDS011;1155;42.644;23.264;2023-04-03T09:49:15;1.30;;;1.20;;
2293;SDS011;1155;42.644;23.264;2023-04-03T09:51:42;1.50;;;1.20;;
2293;SDS011;1155;42.644;23.264;2023-04-03T09:57:09;2.10;;;1.17;;
2293;SDS011;1155;42.644;23.264;2023-04-03T09:59:43;1.30;;;1.00;;
2293;SDS011;1155;42.644;23.264;2023-04-03T10:02:32;1.37;;;1.00;;
2293;SDS011;1155;42.644;23.264;2023-04-03T10:05:02;2.07;;;1.10;;
2293;SDS011;1155;42.644;23.264;2023-04-03T10:07:32;2.43;;;1.20;;
2293;SDS011;1155;42.644;23.264;2023-04-03T10:10:03;1.40;;;1.30;;
2293;SDS011;1155;42.644;23.264;2023-04-03T10:12:43;1.63;;;1.00;;
2293;SDS011;1155;42.644;23.264;2023-04-03T10:15:11;2.50;;;1.80;;
2293;SDS011;1155;42.644;23.264;2023-04-03T10:17:42;3.00;;;1.80;;
2293;SDS011;1155;42.644;23.264;2023-04-03T10:20:26;1.83;;;1.70;;
2293;SDS011;1155;42.644;23.264;2023-04-03T10:23:01;2.93;;;2.10;;
2293;SDS011;1155;42.644;23.264;2023-04-03T10:25:40;2.07;;;1.70;;
2293;SDS011;1155;42.644;23.264;2023-04-03T10:28:12;2.30;;;1.60;;
2293;SDS011;1155;42.644;23.264;2023-04-03T10:30:47;1.67;;;1.37;;
2293;SDS011;1155;42.644;23.264;2023-04-03T10:36:17;2.10;;;1.87;;
2293;SDS011;1155;42.644;23.264;2023-04-03T10:38:51;2.03;;;1.83;;
2293;SDS011;1155;42.644;23.264;2023-04-03T10:41:26;2.30;;;2.00;;
2293;SDS011;1155;42.644;23.264;2023-04-03T10:44:04;4.10;;;1.90;;
2293;SDS011;1155;42.644;23.264;2023-04-03T10:46:41;2.57;;;1.83;;
2293;SDS011;1155;42.644;23.264;2023-04-03T10:49:17;2.83;;;2.03;;
2293;SDS011;1155;42.644;23.264;2023-04-03T10:51:56;2.97;;;2.00;;
2293;SDS011;1155;42.644;23.264;2023-04-03T10:54:31;2.23;;;2.03;;
2293;SDS011;1155;42.644;23.264;2023-04-03T10:57:05;2.80;;;2.10;;
2293;SDS011;1155;42.644;23.264;2023-04-03T10:59:35;2.43;;;2.20;;
2293;SDS011;1155;42.644;23.264;2023-04-03T11:02:06;2.73;;;2.00;;
2293;SDS011;1155;42.644;23.264;2023-04-03T11:04:39;1.80;;;1.60;;
2293;SDS011;1155;42.644;23.264;2023-04-03T11:07:10;2.40;;;1.50;;
2293;SDS011;1155;42.644;23.264;2023-04-03T11:09:42;3.73;;;2.00;;
2293;SDS011;1155;42.644;23.264;2023-04-03T11:12:15;1.70;;;1.60;;
2293;SDS011;1155;42.644;23.264;2023-04-03T11:14:47;3.63;;;2.30;;
2293;SDS011;1155;42.644;23.264;2023-04-03T11:17:20;1.73;;;1.63;;
2293;SDS011;1155;42.644;23.264;2023-04-03T11:19:56;1.90;;;1.80;;
2293;SDS011;1155;42.644;23.264;2023-04-03T11:22:28;1.87;;;1.77;;
2293;SDS011;1155;42.644;23.264;2023-04-03T11:25:03;2.13;;;2.00;;
2293;SDS011;1155;42.644;23.264;2023-04-03T11:27:35;7.23;;;3.50;;
2293;SDS011;1155;42.644;23.264;2023-04-03T11:30:07;4.00;;;3.40;;
2293;SDS011;1155;42.644;23.264;2023-04-03T11:35:45;16.73;;;12.93;;
2293;SDS011;1155;42.644;23.264;2023-04-03T11:38:17;6.20;;;3.50;;
2293;SDS011;1155;42.644;23.264;2023-04-03T11:40:49;7.33;;;3.73;;
2293;SDS011;1155;42.644;23.264;2023-04-03T11:43:22;4.30;;;3.20;;
2293;SDS011;1155;42.644;23.264;2023-04-03T11:45:55;5.07;;;4.67;;
2293;SDS011;1155;42.644;23.264;2023-04-03T11:48:44;6.27;;;3.80;;
2293;SDS011;1155;42.644;23.264;2023-04-03T11:54:43;6.60;;;5.93;;
2293;SDS011;1155;42.644;23.264;2023-04-03T12:06:47;5.27;;;4.70;;
2293;SDS011;1155;42.644;23.264;2023-04-03T12:12:33;10.03;;;6.27;;
2293;SDS011;1155;42.644;23.264;2023-04-03T12:15:16;8.53;;;5.77;;
2293;SDS011;1155;42.644;23.264;2023-04-03T12:17:47;6.37;;;5.77;;
2293;SDS011;1155;42.644;23.264;2023-04-03T12:23:24;5.80;;;4.90;;
2293;SDS011;1155;42.644;23.264;2023-04-03T12:25:54;5.23;;;4.73;;
2293;SDS011;1155;42.644;23.264;2023-04-03T12:28:29;6.63;;;4.40;;
2293;SDS011;1155;42.644;23.264;2023-04-03T12:30:57;5.50;;;4.93;;
2293;SDS011;1155;42.644;23.264;2023-04-03T12:33:31;5.17;;;4.67;;
2293;SDS011;1155;42.644;23.264;2023-04-03T12:36:13;5.13;;;4.63;;
2293;SDS011;1155;42.644;23.264;2023-04-03T12:41:44;4.67;;;3.80;;
2293;SDS011;1155;42.644;23.264;2023-04-03T12:44:27;7.10;;;5.00;;
2293;SDS011;1155;42.644;23.264;2023-04-03T12:47:23;4.87;;;4.17;;
2293;SDS011;1155;42.644;23.264;2023-04-03T12:49:58;6.73;;;5.10;;
2293;SDS011;1155;42.644;23.264;2023-04-03T12:52:33;4.27;;;3.90;;
2293;SDS011;1155;42.644;23.264;2023-04-03T12:55:07;2.70;;;2.50;;
2293;SDS011;1155;42.644;23.264;2023-04-03T12:57:40;3.20;;;2.70;;
2293;SDS011;1155;42.644;23.264;2023-04-03T13:00:21;2.40;;;1.83;;
2293;SDS011;1155;42.644;23.264;2023-04-03T13:02:54;3.23;;;2.23;;
2293;SDS011;1155;42.644;23.264;2023-04-03T13:05:21;2.80;;;2.60;;
2293;SDS011;1155;42.644;23.264;2023-04-03T13:07:52;6.43;;;4.20;;
2293;SDS011;1155;42.644;23.264;2023-04-03T13:10:23;6.43;;;5.77;;
2293;SDS011;1155;42.644;23.264;2023-04-03T13:12:50;8.00;;;6.30;;
2293;SDS011;1155;42.644;23.264;2023-04-03T13:15:20;6.13;;;5.53;;
2293;SDS011;1155;42.644;23.264;2023-04-03T13:17:50;5.47;;;5.03;;
2293;SDS011;1155;42.644;23.264;2023-04-03T13:20:19;7.17;;;6.20;;
2293;SDS011;1155;42.644;23.264;2023-04-03T13:22:54;7.13;;;4.00;;
2293;SDS011;1155;42.644;23.264;2023-04-03T13:25:25;7.20;;;3.80;;
2293;SDS011;1155;42.644;23.264;2023-04-03T13:27:55;4.20;;;3.80;;
2293;SDS011;1155;42.644;23.264;2023-04-03T13:30:25;3.67;;;3.37;;
2293;SDS011;1155;42.644;23.264;2023-04-03T13:32:55;4.50;;;4.17;;
2293;SDS011;1155;42.644;23.264;2023-04-03T13:35:31;5.20;;;4.80;;
2293;SDS011;1155;42.644;23.264;2023-04-03T13:38:04;3.57;;;3.37;;
2293;SDS011;1155;42.644;23.264;2023-04-03T13:40:33;3.00;;;2.80;;
2293;SDS011;1155;42.644;23.264;2023-04-03T13:43:17;2.60;;;2.50;;
2293;SDS011;1155;42.644;23.264;2023-04-03T13:45:53;2.10;;;2.00;;
2293;SDS011;1155;42.644;23.264;2023-04-03T13:48:25;1.40;;;1.30;;
2293;SDS011;1155;42.644;23.264;2023-04-03T13:50:54;2.23;;;2.03;;
2293;SDS011;1155;42.644;23.264;2023-04-03T13:53:26;2.73;;;2.50;;
2293;SDS011;1155;42.644;23.264;2023-04-03T13:55:57;46.53;;;25.57;;
2293;SDS011;1155;42.644;23.264;2023-04-03T13:58:26;8.70;;;6.20;;
2293;SDS011;1155;42.644;23.264;2023-04-03T14:00:55;11.03;;;3.70;;
2293;SDS011;1155;42.644;23.264;2023-04-03T14:03:28;2.03;;;1.93;;
2293;SDS011;1155;42.644;23.264;2023-04-03T14:05:56;2.30;;;2.20;;
2293;SDS011;1155;42.644;23.264;2023-04-03T14:08:23;2.13;;;2.00;;
2293;SDS011;1155;42.644;23.264;2023-04-03T14:10:51;2.20;;;2.00;;
2293;SDS011;1155;42.644;23.264;2023-04-03T14:13:20;2.57;;;2.37;;
2293;SDS011;1155;42.644;23.264;2023-04-03T14:15:47;1.87;;;1.77;;
2293;SDS011;1155;42.644;23.264;2023-04-03T14:18:16;2.20;;;2.00;;
2293;SDS011;1155;42.644;23.264;2023-04-03T14:20:45;1.90;;;1.80;;
2293;SDS011;1155;42.644;23.264;2023-04-03T14:23:13;2.20;;;1.83;;
2293;SDS011;1155;42.644;23.264;2023-04-03T14:25:40;1.87;;;1.77;;
2293;SDS011;1155;42.644;23.264;2023-04-03T14:28:14;4.03;;;2.10;;
2293;SDS011;1155;42.644;23.264;2023-04-03T14:30:44;2.40;;;2.23;;
2293;SDS011;1155;42.644;23.264;2023-04-03T14:33:12;2.17;;;1.97;;
2293;SDS011;1155;42.644;23.264;2023-04-03T14:35:42;2.07;;;1.87;;
2293;SDS011;1155;42.644;23.264;2023-04-03T14:38:13;1.97;;;1.87;;
2293;SDS011;1155;42.644;23.264;2023-04-03T14:40:49;1.57;;;1.47;;
2293;SDS011;1155;42.644;23.264;2023-04-03T14:43:20;2.37;;;1.60;;
2293;SDS011;1155;42.644;23.264;2023-04-03T14:45:47;2.30;;;2.20;;
2293;SDS011;1155;42.644;23.264;2023-04-03T14:48:16;2.30;;;2.10;;
2293;SDS011;1155;42.644;23.264;2023-04-03T14:50:46;1.77;;;1.67;;
2293;SDS011;1155;42.644;23.264;2023-04-03T14:53:13;2.20;;;2.00;;
2293;SDS011;1155;42.644;23.264;2023-04-03T14:55:41;5.63;;;5.13;;
2293;SDS011;1155;42.644;23.264;2023-04-03T14:58:12;3.17;;;2.97;;
2293;SDS011;1155;42.644;23.264;2023-04-03T15:00:42;4.60;;;4.17;;
2293;SDS011;1155;42.644;23.264;2023-04-03T15:03:12;3.10;;;2.70;;
2293;SDS011;1155;42.644;23.264;2023-04-03T15:05:41;4.17;;;3.87;;
2293;SDS011;1155;42.644;23.264;2023-04-03T15:08:13;4.53;;;4.10;;
2293;SDS011;1155;42.644;23.264;2023-04-03T15:10:46;2.80;;;2.60;;
2293;SDS011;1155;42.644;23.264;2023-04-03T15:13:13;3.70;;;3.40;;
2293;SDS011;1155;42.644;23.264;2023-04-03T15:15:42;2.47;;;2.27;;
2293;SDS011;1155;42.644;23.264;2023-04-03T15:18:16;1.97;;;1.57;;
2293;SDS011;1155;42.644;23.264;2023-04-03T15:20:45;2.20;;;1.90;;
2293;SDS011;1155;42.644;23.264;2023-04-03T15:23:16;2.23;;;2.10;;
2293;SDS011;1155;42.644;23.264;2023-04-03T15:25:44;1.93;;;1.83;;
2293;SDS011;1155;42.644;23.264;2023-04-03T15:28:16;2.40;;;2.20;;
2293;SDS011;1155;42.644;23.264;2023-04-03T15:30:46;2.60;;;2.40;;
2293;SDS011;1155;42.644;23.264;2023-04-03T15:33:14;2.53;;;2.33;;
2293;SDS011;1155;42.644;23.264;2023-04-03T15:35:42;2.83;;;2.50;;
2293;SDS011;1155;42.644;23.264;2023-04-03T15:38:09;2.90;;;2.67;;
2293;SDS011;1155;42.644;23.264;2023-04-03T15:40:36;2.57;;;2.37;;
2293;SDS011;1155;42.644;23.264;2023-04-03T15:43:04;3.33;;;3.13;;
2293;SDS011;1155;42.644;23.264;2023-04-03T15:45:32;2.03;;;1.93;;
2293;SDS011;1155;42.644;23.264;2023-04-03T15:48:02;6.20;;;3.20;;